sensor_id;sensor_type;location;lat;lon;timestamp;P1;durP1;ratioP1;P2;durP2;ratioP2
12165;SDS011;6146;48.128;11.476;2024-03-23T00:52:45;2.90;;;2.00;;
12165;SDS011;6146;48.128;11.476;2024-03-23T00:55:11;1.73;;;1.63;;
12165;SDS011;6146;48.128;11.476;2024-03-23T00:57:36;3.17;;;2.13;;
12165;SDS011;6146;48.128;11.476;2024-03-23T01:00:02;2.50;;;2.00;;
12165;SDS011;6146;48.128;11.476;2024-03-23T01:02:30;2.07;;;1.70;;
12165;SDS011;6146;48.128;11.476;2024-03-23T01:04:59;1.73;;;1.63;;
12165;SDS011;6146;48.128;11.476;2024-03-23T01:07:24;2.27;;;1.93;;
12165;SDS011;6146;48.128;11.476;2024-03-23T01:09:50;3.07;;;2.30;;
12165;SDS011;6146;48.128;11.476;2024-03-23T01:12:17;2.40;;;2.20;;
12165;SDS011;6146;48.128;11.476;2024-03-23T01:14:42;1.80;;;1.70;;
12165;SDS011;6146;48.128;11.476;2024-03-23T01:17:08;2.70;;;2.10;;
12165;SDS011;6146;48.128;11.476;2024-03-23T01:19:33;3.73;;;2.13;;
12165;SDS011;6146;48.128;11.476;2024-03-23T01:21:59;3.07;;;2.27;;
12165;SDS011;6146;48.128;11.476;2024-03-23T01:24:25;9.00;;;2.40;;
12165;SDS011;6146;48.128;11.476;2024-03-23T01:26:50;2.50;;;1.90;;
12165;SDS011;6146;48.128;11.476;2024-03-23T01:29:16;2.00;;;1.80;;
12165;SDS011;6146;48.128;11.476;2024-03-23T01:31:41;3.23;;;2.40;;
12165;SDS011;6146;48.128;11.476;2024-03-23T01:34:07;2.87;;;1.97;;
12165;SDS011;6146;48.128;11.476;2024-03-23T01:36:33;3.37;;;2.00;;
12165;SDS011;6146;48.128;11.476;2024-03-23T01:38:58;3.13;;;2.10;;
12165;SDS011;6146;48.128;11.476;2024-03-23T01:41:24;2.87;;;2.17;;
12165;SDS011;6146;48.128;11.476;2024-03-23T01:43:50;2.40;;;2.20;;
12165;SDS011;6146;48.128;11.476;2024-03-23T01:46:16;2.43;;;1.93;;
12165;SDS011;6146;48.128;11.476;2024-03-23T01:48:42;2.67;;;2.00;;
12165;SDS011;6146;48.128;11.476;2024-03-23T01:51:07;3.20;;;2.83;;
12165;SDS011;6146;48.128;11.476;2024-03-23T01:53:34;5.07;;;2.30;;
12165;SDS011;6146;48.128;11.476;2024-03-23T01:55:59;4.40;;;2.93;;
12165;SDS011;6146;48.128;11.476;2024-03-23T01:58:27;4.07;;;3.67;;
12165;SDS011;6146;48.128;11.476;2024-03-23T02:00:52;4.23;;;3.57;;
12165;SDS011;6146;48.128;11.476;2024-03-23T02:05:50;6.73;;;4.07;;
12165;SDS011;6146;48.128;11.476;2024-03-23T02:08:21;5.73;;;3.00;;
12165;SDS011;6146;48.128;11.476;2024-03-23T02:10:48;4.10;;;3.00;;
12165;SDS011;6146;48.128;11.476;2024-03-23T02:13:14;3.10;;;2.80;;
12165;SDS011;6146;48.128;11.476;2024-03-23T02:15:43;3.30;;;2.50;;
12165;SDS011;6146;48.128;11.476;2024-03-23T02:18:09;3.73;;;3.00;;
12165;SDS011;6146;48.128;11.476;2024-03-23T02:20:35;4.00;;;2.57;;
12165;SDS011;6146;48.128;11.476;2024-03-23T02:23:01;3.53;;;2.90;;
12165;SDS011;6146;48.128;11.476;2024-03-23T02:25:27;4.00;;;2.63;;
12165;SDS011;6146;48.128;11.476;2024-03-23T02:27:53;3.83;;;3.40;;
12165;SDS011;6146;48.128;11.476;2024-03-23T02:30:19;2.90;;;2.47;;
12165;SDS011;6146;48.128;11.476;2024-03-23T02:32:45;2.70;;;2.10;;
12165;SDS011;6146;48.128;11.476;2024-03-23T02:35:11;3.67;;;3.07;;
12165;SDS011;6146;48.128;11.476;2024-03-23T02:37:37;5.80;;;2.70;;
12165;SDS011;6146;48.128;11.476;2024-03-23T02:40:02;2.83;;;2.33;;
12165;SDS011;6146;48.128;11.476;2024-03-23T02:42:28;3.30;;;2.83;;
12165;SDS011;6146;48.128;11.476;2024-03-23T02:44:54;4.87;;;3.30;;
12165;SDS011;6146;48.128;11.476;2024-03-23T02:47:19;4.13;;;3.23;;
12165;SDS011;6146;48.128;11.476;2024-03-23T02:49:45;4.60;;;2.60;;
12165;SDS011;6146;48.128;11.476;2024-03-23T02:52:10;3.33;;;2.50;;
12165;SDS011;6146;48.128;11.476;2024-03-23T02:54:36;3.23;;;2.90;;
12165;SDS011;6146;48.128;11.476;2024-03-23T02:57:01;4.17;;;3.00;;
12165;SDS011;6146;48.128;11.476;2024-03-23T02:59:27;5.97;;;2.60;;
12165;SDS011;6146;48.128;11.476;2024-03-23T03:01:53;3.83;;;2.80;;
12165;SDS011;6146;48.128;11.476;2024-03-23T03:04:18;4.30;;;2.73;;
12165;SDS011;6146;48.128;11.476;2024-03-23T03:06:47;4.13;;;2.70;;
12165;SDS011;6146;48.128;11.476;2024-03-23T03:09:13;4.50;;;3.30;;
12165;SDS011;6146;48.128;11.476;2024-03-23T03:11:38;4.40;;;2.90;;
12165;SDS011;6146;48.128;11.476;2024-03-23T03:14:04;4.10;;;3.30;;
12165;SDS011;6146;48.128;11.476;2024-03-23T03:16:32;3.57;;;2.93;;
12165;SDS011;6146;48.128;11.476;2024-03-23T03:18:57;3.97;;;3.30;;
12165;SDS011;6146;48.128;11.476;2024-03-23T03:21:23;3.73;;;2.67;;
12165;SDS011;6146;48.128;11.476;2024-03-23T03:23:48;4.27;;;2.83;;
12165;SDS011;6146;48.128;11.476;2024-03-23T03:26:15;3.20;;;2.60;;
12165;SDS011;6146;48.128;11.476;2024-03-23T03:28:44;3.83;;;2.80;;
12165;SDS011;6146;48.128;11.476;2024-03-23T03:31:13;3.03;;;2.50;;
12165;SDS011;6146;48.128;11.476;2024-03-23T03:33:39;3.50;;;3.00;;
12165;SDS011;6146;48.128;11.476;2024-03-23T03:36:05;3.00;;;2.63;;
12165;SDS011;6146;48.128;11.476;2024-03-23T03:38:31;4.03;;;2.50;;
12165;SDS011;6146;48.128;11.476;2024-03-23T03:40:56;3.87;;;2.70;;
12165;SDS011;6146;48.128;11.476;2024-03-23T03:43:23;2.87;;;2.53;;
12165;SDS011;6146;48.128;11.476;2024-03-23T03:45:56;3.00;;;2.50;;
12165;SDS011;6146;48.128;11.476;2024-03-23T03:48:22;3.90;;;2.50;;
12165;SDS011;6146;48.128;11.476;2024-03-23T03:50:48;3.33;;;2.23;;
12165;SDS011;6146;48.128;11.476;2024-03-23T03:53:14;3.07;;;2.40;;
12165;SDS011;6146;48.128;11.476;2024-03-23T03:55:40;2.53;;;2.20;;
12165;SDS011;6146;48.128;11.476;2024-03-23T03:58:05;2.70;;;2.30;;
12165;SDS011;6146;48.128;11.476;2024-03-23T04:00:31;2.80;;;2.30;;
12165;SDS011;6146;48.128;11.476;2024-03-23T04:02:56;2.50;;;2.20;;
12165;SDS011;6146;48.128;11.476;2024-03-23T04:05:22;3.43;;;2.30;;
12165;SDS011;6146;48.128;11.476;2024-03-23T04:07:48;4.00;;;2.37;;
12165;SDS011;6146;48.128;11.476;2024-03-23T04:10:14;3.40;;;2.50;;
12165;SDS011;6146;48.128;11.476;2024-03-23T04:12:40;2.87;;;2.00;;
12165;SDS011;6146;48.128;11.476;2024-03-23T04:15:06;4.77;;;2.50;;
12165;SDS011;6146;48.128;11.476;2024-03-23T04:17:32;2.43;;;2.23;;
12165;SDS011;6146;48.128;11.476;2024-03-23T04:19:59;3.07;;;2.27;;
12165;SDS011;6146;48.128;11.476;2024-03-23T04:22:25;2.80;;;2.37;;
12165;SDS011;6146;48.128;11.476;2024-03-23T04:24:54;2.83;;;2.30;;
12165;SDS011;6146;48.128;11.476;2024-03-23T04:27:23;3.70;;;2.87;;
12165;SDS011;6146;48.128;11.476;2024-03-23T04:29:49;5.40;;;2.70;;
12165;SDS011;6146;48.128;11.476;2024-03-23T04:32:15;3.23;;;2.37;;
12165;SDS011;6146;48.128;11.476;2024-03-23T04:34:42;2.17;;;1.97;;
12165;SDS011;6146;48.128;11.476;2024-03-23T04:37:08;3.30;;;2.50;;
12165;SDS011;6146;48.128;11.476;2024-03-23T04:39:35;2.27;;;2.07;;
12165;SDS011;6146;48.128;11.476;2024-03-23T04:42:01;3.50;;;1.80;;
12165;SDS011;6146;48.128;11.476;2024-03-23T04:44:27;3.57;;;1.97;;
12165;SDS011;6146;48.128;11.476;2024-03-23T04:46:53;6.30;;;2.47;;
12165;SDS011;6146;48.128;11.476;2024-03-23T04:49:19;2.90;;;2.30;;
12165;SDS011;6146;48.128;11.476;2024-03-23T04:51:44;4.47;;;2.00;;
12165;SDS011;6146;48.128;11.476;2024-03-23T04:54:14;2.53;;;1.90;;
12165;SDS011;6146;48.128;11.476;2024-03-23T04:56:40;4.23;;;2.50;;
12165;SDS011;6146;48.128;11.476;2024-03-23T04:59:06;2.70;;;2.30;;
12165;SDS011;6146;48.128;11.476;2024-03-23T05:01:32;3.00;;;1.77;;
12165;SDS011;6146;48.128;11.476;2024-03-23T05:03:57;2.43;;;2.20;;
12165;SDS011;6146;48.128;11.476;2024-03-23T05:06:26;2.20;;;2.00;;
12165;SDS011;6146;48.128;11.476;2024-03-23T05:08:52;1.97;;;1.80;;
12165;SDS011;6146;48.128;11.476;2024-03-23T05:11:17;3.13;;;2.00;;
12165;SDS011;6146;48.128;11.476;2024-03-23T05:13:43;2.50;;;1.93;;
12165;SDS011;6146;48.128;11.476;2024-03-23T05:16:09;2.13;;;1.93;;
12165;SDS011;6146;48.128;11.476;2024-03-23T05:18:35;4.90;;;2.50;;
12165;SDS011;6146;48.128;11.476;2024-03-23T05:21:00;2.03;;;1.70;;
12165;SDS011;6146;48.128;11.476;2024-03-23T05:23:26;2.80;;;1.90;;
12165;SDS011;6146;48.128;11.476;2024-03-23T05:25:53;4.40;;;2.80;;
12165;SDS011;6146;48.128;11.476;2024-03-23T05:28:20;2.80;;;2.13;;
12165;SDS011;6146;48.128;11.476;2024-03-23T05:30:55;2.10;;;1.90;;
12165;SDS011;6146;48.128;11.476;2024-03-23T05:33:22;3.33;;;1.70;;
12165;SDS011;6146;48.128;11.476;2024-03-23T05:35:55;2.23;;;1.90;;
12165;SDS011;6146;48.128;11.476;2024-03-23T05:38:25;4.13;;;1.70;;
12165;SDS011;6146;48.128;11.476;2024-03-23T05:40:54;2.37;;;2.10;;
12165;SDS011;6146;48.128;11.476;2024-03-23T05:43:21;3.43;;;1.80;;
12165;SDS011;6146;48.128;11.476;2024-03-23T05:45:52;2.37;;;1.90;;
12165;SDS011;6146;48.128;11.476;2024-03-23T05:48:22;1.90;;;1.60;;
12165;SDS011;6146;48.128;11.476;2024-03-23T05:50:48;2.60;;;1.80;;
12165;SDS011;6146;48.128;11.476;2024-03-23T05:53:15;2.50;;;1.90;;
12165;SDS011;6146;48.128;11.476;2024-03-23T05:55:41;2.27;;;1.90;;
12165;SDS011;6146;48.128;11.476;2024-03-23T05:58:07;1.63;;;1.53;;
12165;SDS011;6146;48.128;11.476;2024-03-23T06:00:32;2.07;;;1.70;;
12165;SDS011;6146;48.128;11.476;2024-03-23T06:02:58;2.10;;;1.67;;
12165;SDS011;6146;48.128;11.476;2024-03-23T06:05:23;3.37;;;2.00;;
12165;SDS011;6146;48.128;11.476;2024-03-23T06:07:49;2.23;;;1.73;;
12165;SDS011;6146;48.128;11.476;2024-03-23T06:10:15;2.33;;;1.53;;
12165;SDS011;6146;48.128;11.476;2024-03-23T06:12:40;1.80;;;1.70;;
12165;SDS011;6146;48.128;11.476;2024-03-23T06:15:06;1.80;;;1.57;;
12165;SDS011;6146;48.128;11.476;2024-03-23T06:17:35;2.13;;;1.67;;
12165;SDS011;6146;48.128;11.476;2024-03-23T06:20:01;5.17;;;1.63;;
12165;SDS011;6146;48.128;11.476;2024-03-23T06:22:27;2.63;;;1.67;;
12165;SDS011;6146;48.128;11.476;2024-03-23T06:24:52;2.43;;;1.70;;
12165;SDS011;6146;48.128;11.476;2024-03-23T06:27:18;1.67;;;1.57;;
12165;SDS011;6146;48.128;11.476;2024-03-23T06:29:44;4.10;;;1.63;;
12165;SDS011;6146;48.128;11.476;2024-03-23T06:32:09;2.47;;;1.70;;
12165;SDS011;6146;48.128;11.476;2024-03-23T06:34:35;2.70;;;1.87;;
12165;SDS011;6146;48.128;11.476;2024-03-23T06:37:01;2.20;;;1.60;;
12165;SDS011;6146;48.128;11.476;2024-03-23T06:39:27;1.73;;;1.60;;
12165;SDS011;6146;48.128;11.476;2024-03-23T06:41:53;3.30;;;2.20;;
12165;SDS011;6146;48.128;11.476;2024-03-23T06:44:19;2.10;;;1.60;;
12165;SDS011;6146;48.128;11.476;2024-03-23T06:46:45;2.43;;;1.73;;
12165;SDS011;6146;48.128;11.476;2024-03-23T06:49:11;2.33;;;1.80;;
12165;SDS011;6146;48.128;11.476;2024-03-23T06:51:37;1.67;;;1.50;;
12165;SDS011;6146;48.128;11.476;2024-03-23T06:54:03;3.07;;;1.60;;
12165;SDS011;6146;48.128;11.476;2024-03-23T06:56:29;3.53;;;1.53;;
12165;SDS011;6146;48.128;11.476;2024-03-23T06:58:55;2.50;;;1.87;;
12165;SDS011;6146;48.128;11.476;2024-03-23T07:01:21;2.10;;;1.90;;
12165;SDS011;6146;48.128;11.476;2024-03-23T07:03:46;2.13;;;1.83;;
12165;SDS011;6146;48.128;11.476;2024-03-23T07:06:12;3.87;;;1.87;;
12165;SDS011;6146;48.128;11.476;2024-03-23T07:08:37;1.97;;;1.70;;
12165;SDS011;6146;48.128;11.476;2024-03-23T07:11:03;2.03;;;1.73;;
12165;SDS011;6146;48.128;11.476;2024-03-23T07:13:29;2.00;;;1.70;;
12165;SDS011;6146;48.128;11.476;2024-03-23T07:15:55;3.27;;;1.70;;
12165;SDS011;6146;48.128;11.476;2024-03-23T07:18:22;3.10;;;1.90;;
12165;SDS011;6146;48.128;11.476;2024-03-23T07:20:54;2.47;;;1.70;;
12165;SDS011;6146;48.128;11.476;2024-03-23T07:23:24;2.17;;;1.53;;
12165;SDS011;6146;48.128;11.476;2024-03-23T07:25:59;1.60;;;1.50;;
12165;SDS011;6146;48.128;11.476;2024-03-23T07:28:26;1.77;;;1.67;;
12165;SDS011;6146;48.128;11.476;2024-03-23T07:31:06;1.67;;;1.57;;
12165;SDS011;6146;48.128;11.476;2024-03-23T07:33:36;1.70;;;1.47;;
12165;SDS011;6146;48.128;11.476;2024-03-23T07:36:03;2.60;;;1.80;;
12165;SDS011;6146;48.128;11.476;2024-03-23T07:38:29;1.80;;;1.40;;
12165;SDS011;6146;48.128;11.476;2024-03-23T07:41:11;4.43;;;1.83;;
12165;SDS011;6146;48.128;11.476;2024-03-23T07:43:39;2.97;;;1.87;;
12165;SDS011;6146;48.128;11.476;2024-03-23T07:46:08;4.00;;;2.40;;
12165;SDS011;6146;48.128;11.476;2024-03-23T07:48:34;4.93;;;2.20;;
12165;SDS011;6146;48.128;11.476;2024-03-23T07:51:06;3.53;;;2.20;;
12165;SDS011;6146;48.128;11.476;2024-03-23T07:53:34;3.30;;;2.10;;
12165;SDS011;6146;48.128;11.476;2024-03-23T07:56:01;4.17;;;2.40;;
12165;SDS011;6146;48.128;11.476;2024-03-23T07:58:29;2.73;;;2.30;;
12165;SDS011;6146;48.128;11.476;2024-03-23T08:00:55;2.10;;;1.90;;
12165;SDS011;6146;48.128;11.476;2024-03-23T08:03:21;3.73;;;2.03;;
12165;SDS011;6146;48.128;11.476;2024-03-23T08:05:47;2.83;;;2.30;;
12165;SDS011;6146;48.128;11.476;2024-03-23T08:08:13;3.10;;;2.37;;
12165;SDS011;6146;48.128;11.476;2024-03-23T08:10:49;2.90;;;2.37;;
12165;SDS011;6146;48.128;11.476;2024-03-23T08:13:15;4.93;;;3.10;;
12165;SDS011;6146;48.128;11.476;2024-03-23T08:15:40;3.20;;;2.63;;
12165;SDS011;6146;48.128;11.476;2024-03-23T08:18:07;2.90;;;2.43;;
12165;SDS011;6146;48.128;11.476;2024-03-23T08:20:32;2.87;;;2.57;;
12165;SDS011;6146;48.128;11.476;2024-03-23T08:22:58;2.83;;;2.40;;
12165;SDS011;6146;48.128;11.476;2024-03-23T08:25:24;3.33;;;2.50;;
12165;SDS011;6146;48.128;11.476;2024-03-23T08:27:49;3.57;;;2.60;;
12165;SDS011;6146;48.128;11.476;2024-03-23T08:30:15;2.60;;;2.30;;
12165;SDS011;6146;48.128;11.476;2024-03-23T08:32:41;2.40;;;2.13;;
12165;SDS011;6146;48.128;11.476;2024-03-23T08:35:07;2.20;;;1.93;;
12165;SDS011;6146;48.128;11.476;2024-03-23T08:37:33;2.90;;;2.30;;
12165;SDS011;6146;48.128;11.476;2024-03-23T08:39:59;2.27;;;2.07;;
12165;SDS011;6146;48.128;11.476;2024-03-23T08:42:24;2.60;;;2.10;;
12165;SDS011;6146;48.128;11.476;2024-03-23T08:44:50;3.23;;;2.57;;
12165;SDS011;6146;48.128;11.476;2024-03-23T08:47:15;3.40;;;2.30;;
12165;SDS011;6146;48.128;11.476;2024-03-23T08:49:41;3.83;;;2.77;;
12165;SDS011;6146;48.128;11.476;2024-03-23T08:52:07;2.70;;;2.50;;
12165;SDS011;6146;48.128;11.476;2024-03-23T08:54:33;3.97;;;2.60;;
12165;SDS011;6146;48.128;11.476;2024-03-23T08:56:59;3.10;;;2.67;;
12165;SDS011;6146;48.128;11.476;2024-03-23T08:59:25;3.73;;;2.70;;
12165;SDS011;6146;48.128;11.476;2024-03-23T09:01:50;3.73;;;2.97;;
12165;SDS011;6146;48.128;11.476;2024-03-23T09:04:16;4.47;;;2.83;;
12165;SDS011;6146;48.128;11.476;2024-03-23T09:06:44;6.50;;;2.70;;
12165;SDS011;6146;48.128;11.476;2024-03-23T09:09:10;4.50;;;2.83;;
12165;SDS011;6146;48.128;11.476;2024-03-23T09:11:35;3.60;;;2.70;;
12165;SDS011;6146;48.128;11.476;2024-03-23T09:14:02;3.40;;;3.10;;
12165;SDS011;6146;48.128;11.476;2024-03-23T09:16:28;3.73;;;3.17;;
12165;SDS011;6146;48.128;11.476;2024-03-23T09:18:54;4.17;;;2.70;;
12165;SDS011;6146;48.128;11.476;2024-03-23T09:21:19;3.07;;;2.70;;
12165;SDS011;6146;48.128;11.476;2024-03-23T09:23:45;3.23;;;2.87;;
12165;SDS011;6146;48.128;11.476;2024-03-23T09:26:11;3.83;;;2.67;;
12165;SDS011;6146;48.128;11.476;2024-03-23T09:28:37;3.00;;;2.70;;
12165;SDS011;6146;48.128;11.476;2024-03-23T09:31:03;2.80;;;2.50;;
12165;SDS011;6146;48.128;11.476;2024-03-23T09:33:32;2.50;;;2.10;;
12165;SDS011;6146;48.128;11.476;2024-03-23T09:36:04;2.33;;;2.00;;
12165;SDS011;6146;48.128;11.476;2024-03-23T09:38:30;2.53;;;1.90;;
12165;SDS011;6146;48.128;11.476;2024-03-23T09:40:56;1.57;;;1.47;;
12165;SDS011;6146;48.128;11.476;2024-03-23T09:43:22;1.40;;;1.30;;
12165;SDS011;6146;48.128;11.476;2024-03-23T09:45:48;1.70;;;1.20;;
12165;SDS011;6146;48.128;11.476;2024-03-23T09:48:14;1.63;;;1.53;;
12165;SDS011;6146;48.128;11.476;2024-03-23T09:50:51;1.67;;;1.30;;
12165;SDS011;6146;48.128;11.476;2024-03-23T09:53:16;1.23;;;1.13;;
12165;SDS011;6146;48.128;11.476;2024-03-23T09:55:42;1.43;;;1.17;;
12165;SDS011;6146;48.128;11.476;2024-03-23T09:58:12;1.30;;;1.20;;
12165;SDS011;6146;48.128;11.476;2024-03-23T10:00:39;1.50;;;1.40;;
12165;SDS011;6146;48.128;11.476;2024-03-23T10:03:04;3.13;;;1.70;;
12165;SDS011;6146;48.128;11.476;2024-03-23T10:05:31;2.83;;;1.63;;
12165;SDS011;6146;48.128;11.476;2024-03-23T10:07:59;2.30;;;1.57;;
12165;SDS011;6146;48.128;11.476;2024-03-23T10:10:51;1.60;;;1.50;;
12165;SDS011;6146;48.128;11.476;2024-03-23T10:13:26;1.93;;;1.47;;
12165;SDS011;6146;48.128;11.476;2024-03-23T10:15:56;1.50;;;1.37;;
12165;SDS011;6146;48.128;11.476;2024-03-23T10:18:23;2.10;;;1.50;;
12165;SDS011;6146;48.128;11.476;2024-03-23T10:21:06;1.70;;;1.30;;
12165;SDS011;6146;48.128;11.476;2024-03-23T10:23:32;1.30;;;1.20;;
12165;SDS011;6146;48.128;11.476;2024-03-23T10:26:17;2.93;;;1.50;;
12165;SDS011;6146;48.128;11.476;2024-03-23T10:28:51;1.87;;;1.43;;
12165;SDS011;6146;48.128;11.476;2024-03-23T10:31:33;1.40;;;1.30;;
12165;SDS011;6146;48.128;11.476;2024-03-23T10:34:02;1.73;;;1.10;;
12165;SDS011;6146;48.128;11.476;2024-03-23T10:36:28;2.03;;;1.40;;
12165;SDS011;6146;48.128;11.476;2024-03-23T10:38:55;1.40;;;1.20;;
12165;SDS011;6146;48.128;11.476;2024-03-23T10:41:24;1.10;;;1.00;;
12165;SDS011;6146;48.128;11.476;2024-03-23T10:43:52;1.40;;;1.23;;
12165;SDS011;6146;48.128;11.476;2024-03-23T10:46:20;0.90;;;0.90;;
12165;SDS011;6146;48.128;11.476;2024-03-23T10:48:46;3.33;;;1.50;;
12165;SDS011;6146;48.128;11.476;2024-03-23T10:51:12;1.00;;;0.90;;
12165;SDS011;6146;48.128;11.476;2024-03-23T10:53:39;1.07;;;0.97;;
12165;SDS011;6146;48.128;11.476;2024-03-23T10:56:05;2.00;;;0.83;;
12165;SDS011;6146;48.128;11.476;2024-03-23T11:01:02;0.83;;;0.70;;
12165;SDS011;6146;48.128;11.476;2024-03-23T11:03:34;2.00;;;1.17;;
12165;SDS011;6146;48.128;11.476;2024-03-23T11:06:02;1.80;;;0.90;;
12165;SDS011;6146;48.128;11.476;2024-03-23T11:08:32;1.00;;;0.90;;
12165;SDS011;6146;48.128;11.476;2024-03-23T11:11:19;1.40;;;1.00;;
12165;SDS011;6146;48.128;11.476;2024-03-23T11:13:54;1.43;;;1.00;;
12165;SDS011;6146;48.128;11.476;2024-03-23T11:16:26;0.90;;;0.80;;
12165;SDS011;6146;48.128;11.476;2024-03-23T11:22:03;2.00;;;1.30;;
12165;SDS011;6146;48.128;11.476;2024-03-23T11:24:33;1.30;;;1.17;;
12165;SDS011;6146;48.128;11.476;2024-03-23T11:26:59;2.33;;;1.17;;
12165;SDS011;6146;48.128;11.476;2024-03-23T11:29:28;1.73;;;1.20;;
12165;SDS011;6146;48.128;11.476;2024-03-23T11:31:55;1.63;;;1.30;;
12165;SDS011;6146;48.128;11.476;2024-03-23T11:34:21;1.80;;;1.40;;
12165;SDS011;6146;48.128;11.476;2024-03-23T11:36:47;3.80;;;1.40;;
12165;SDS011;6146;48.128;11.476;2024-03-23T11:39:17;3.50;;;1.30;;
12165;SDS011;6146;48.128;11.476;2024-03-23T11:41:47;2.77;;;1.33;;
12165;SDS011;6146;48.128;11.476;2024-03-23T11:44:20;1.63;;;1.50;;
12165;SDS011;6146;48.128;11.476;2024-03-23T11:46:49;2.30;;;1.63;;
12165;SDS011;6146;48.128;11.476;2024-03-23T11:49:22;2.43;;;1.80;;
12165;SDS011;6146;48.128;11.476;2024-03-23T11:51:48;2.53;;;1.60;;
12165;SDS011;6146;48.128;11.476;2024-03-23T11:54:14;1.83;;;1.70;;
12165;SDS011;6146;48.128;11.476;2024-03-23T11:56:40;1.40;;;1.30;;
12165;SDS011;6146;48.128;11.476;2024-03-23T11:59:06;1.60;;;1.20;;
12165;SDS011;6146;48.128;11.476;2024-03-23T12:01:32;1.80;;;1.30;;
12165;SDS011;6146;48.128;11.476;2024-03-23T12:03:58;4.13;;;1.30;;
12165;SDS011;6146;48.128;11.476;2024-03-23T12:06:24;1.10;;;1.00;;
12165;SDS011;6146;48.128;11.476;2024-03-23T12:08:50;2.17;;;1.33;;
12165;SDS011;6146;48.128;11.476;2024-03-23T12:11:16;2.07;;;1.40;;
12165;SDS011;6146;48.128;11.476;2024-03-23T12:13:43;4.50;;;2.80;;
12165;SDS011;6146;48.128;11.476;2024-03-23T12:16:14;3.63;;;2.33;;
12165;SDS011;6146;48.128;11.476;2024-03-23T12:18:44;4.43;;;3.00;;
12165;SDS011;6146;48.128;11.476;2024-03-23T12:21:10;2.80;;;2.23;;
12165;SDS011;6146;48.128;11.476;2024-03-23T12:23:35;4.20;;;3.03;;
12165;SDS011;6146;48.128;11.476;2024-03-23T12:26:03;5.20;;;3.57;;
12165;SDS011;6146;48.128;11.476;2024-03-23T12:28:29;6.93;;;4.03;;
12165;SDS011;6146;48.128;11.476;2024-03-23T12:30:54;3.60;;;3.27;;
12165;SDS011;6146;48.128;11.476;2024-03-23T12:33:20;4.23;;;2.90;;
12165;SDS011;6146;48.128;11.476;2024-03-23T12:35:46;5.27;;;2.47;;
12165;SDS011;6146;48.128;11.476;2024-03-23T12:38:12;3.07;;;2.27;;
12165;SDS011;6146;48.128;11.476;2024-03-23T12:40:38;3.73;;;2.50;;
12165;SDS011;6146;48.128;11.476;2024-03-23T12:43:04;3.17;;;2.50;;
12165;SDS011;6146;48.128;11.476;2024-03-23T12:45:29;3.30;;;2.20;;
12165;SDS011;6146;48.128;11.476;2024-03-23T12:47:55;2.20;;;2.00;;
12165;SDS011;6146;48.128;11.476;2024-03-23T12:50:20;3.13;;;1.97;;
12165;SDS011;6146;48.128;11.476;2024-03-23T12:52:46;4.27;;;2.10;;
12165;SDS011;6146;48.128;11.476;2024-03-23T12:55:12;4.40;;;2.20;;
12165;SDS011;6146;48.128;11.476;2024-03-23T12:57:38;2.90;;;2.20;;
12165;SDS011;6146;48.128;11.476;2024-03-23T13:00:04;3.00;;;2.03;;
12165;SDS011;6146;48.128;11.476;2024-03-23T13:02:31;3.77;;;1.90;;
12165;SDS011;6146;48.128;11.476;2024-03-23T13:04:57;2.70;;;2.33;;
12165;SDS011;6146;48.128;11.476;2024-03-23T13:07:23;3.63;;;2.40;;
12165;SDS011;6146;48.128;11.476;2024-03-23T13:09:52;4.27;;;2.10;;
12165;SDS011;6146;48.128;11.476;2024-03-23T13:12:18;2.77;;;1.97;;
12165;SDS011;6146;48.128;11.476;2024-03-23T13:14:45;4.13;;;2.50;;
12165;SDS011;6146;48.128;11.476;2024-03-23T13:17:11;4.37;;;2.37;;
12165;SDS011;6146;48.128;11.476;2024-03-23T13:19:37;6.30;;;2.63;;
12165;SDS011;6146;48.128;11.476;2024-03-23T13:22:02;3.63;;;2.03;;
12165;SDS011;6146;48.128;11.476;2024-03-23T13:24:29;4.40;;;2.27;;
12165;SDS011;6146;48.128;11.476;2024-03-23T13:26:55;4.17;;;2.20;;
12165;SDS011;6146;48.128;11.476;2024-03-23T13:29:21;7.23;;;2.80;;
12165;SDS011;6146;48.128;11.476;2024-03-23T13:31:48;4.17;;;2.50;;
12165;SDS011;6146;48.128;11.476;2024-03-23T13:34:14;3.80;;;2.43;;
12165;SDS011;6146;48.128;11.476;2024-03-23T13:36:44;6.03;;;2.17;;
12165;SDS011;6146;48.128;11.476;2024-03-23T13:39:10;6.10;;;2.60;;
12165;SDS011;6146;48.128;11.476;2024-03-23T13:44:05;3.47;;;2.10;;
12165;SDS011;6146;48.128;11.476;2024-03-23T13:46:32;4.07;;;2.50;;
12165;SDS011;6146;48.128;11.476;2024-03-23T13:48:58;3.30;;;2.40;;
12165;SDS011;6146;48.128;11.476;2024-03-23T13:51:24;3.33;;;2.00;;
12165;SDS011;6146;48.128;11.476;2024-03-23T13:53:52;3.60;;;2.40;;
12165;SDS011;6146;48.128;11.476;2024-03-23T13:56:19;4.40;;;2.57;;
12165;SDS011;6146;48.128;11.476;2024-03-23T13:58:45;4.97;;;2.87;;
12165;SDS011;6146;48.128;11.476;2024-03-23T14:01:12;3.87;;;3.03;;
12165;SDS011;6146;48.128;11.476;2024-03-23T14:03:41;6.30;;;3.23;;
12165;SDS011;6146;48.128;11.476;2024-03-23T14:06:07;5.27;;;3.00;;
12165;SDS011;6146;48.128;11.476;2024-03-23T14:08:37;5.23;;;2.60;;
12165;SDS011;6146;48.128;11.476;2024-03-23T14:11:07;6.53;;;3.20;;
12165;SDS011;6146;48.128;11.476;2024-03-23T14:13:36;4.93;;;2.83;;
12165;SDS011;6146;48.128;11.476;2024-03-23T14:16:02;5.33;;;3.50;;
12165;SDS011;6146;48.128;11.476;2024-03-23T14:18:28;4.27;;;3.20;;
12165;SDS011;6146;48.128;11.476;2024-03-23T14:21:00;5.70;;;3.23;;
12165;SDS011;6146;48.128;11.476;2024-03-23T14:23:26;6.17;;;3.20;;
12165;SDS011;6146;48.128;11.476;2024-03-23T14:25:58;4.63;;;3.00;;
12165;SDS011;6146;48.128;11.476;2024-03-23T14:28:23;4.60;;;2.80;;
12165;SDS011;6146;48.128;11.476;2024-03-23T14:30:49;9.50;;;3.37;;
12165;SDS011;6146;48.128;11.476;2024-03-23T14:33:16;5.07;;;2.77;;
12165;SDS011;6146;48.128;11.476;2024-03-23T14:35:42;4.23;;;2.63;;
12165;SDS011;6146;48.128;11.476;2024-03-23T14:38:07;4.27;;;1.97;;
12165;SDS011;6146;48.128;11.476;2024-03-23T14:40:33;3.90;;;2.33;;
12165;SDS011;6146;48.128;11.476;2024-03-23T14:42:59;3.33;;;2.10;;
12165;SDS011;6146;48.128;11.476;2024-03-23T14:45:24;4.53;;;1.97;;
12165;SDS011;6146;48.128;11.476;2024-03-23T14:47:50;3.17;;;2.10;;
12165;SDS011;6146;48.128;11.476;2024-03-23T14:50:16;5.37;;;1.77;;
12165;SDS011;6146;48.128;11.476;2024-03-23T14:52:45;2.57;;;1.80;;
12165;SDS011;6146;48.128;11.476;2024-03-23T14:55:11;4.30;;;2.10;;
12165;SDS011;6146;48.128;11.476;2024-03-23T14:57:37;3.37;;;1.97;;
12165;SDS011;6146;48.128;11.476;2024-03-23T15:00:09;4.00;;;1.93;;
12165;SDS011;6146;48.128;11.476;2024-03-23T15:02:39;4.73;;;2.00;;
12165;SDS011;6146;48.128;11.476;2024-03-23T15:05:05;3.60;;;1.90;;
12165;SDS011;6146;48.128;11.476;2024-03-23T15:07:34;3.80;;;1.83;;
12165;SDS011;6146;48.128;11.476;2024-03-23T15:10:03;6.30;;;2.07;;
12165;SDS011;6146;48.128;11.476;2024-03-23T15:12:33;4.47;;;2.10;;
12165;SDS011;6146;48.128;11.476;2024-03-23T15:14:59;4.77;;;1.93;;
12165;SDS011;6146;48.128;11.476;2024-03-23T15:17:25;4.27;;;2.20;;
12165;SDS011;6146;48.128;11.476;2024-03-23T15:19:51;3.70;;;2.20;;
12165;SDS011;6146;48.128;11.476;2024-03-23T15:22:18;3.40;;;2.20;;
12165;SDS011;6146;48.128;11.476;2024-03-23T15:24:43;4.60;;;2.30;;
12165;SDS011;6146;48.128;11.476;2024-03-23T15:27:09;4.50;;;2.17;;
12165;SDS011;6146;48.128;11.476;2024-03-23T15:29:34;4.93;;;2.40;;
12165;SDS011;6146;48.128;11.476;2024-03-23T15:32:01;4.83;;;2.27;;
12165;SDS011;6146;48.128;11.476;2024-03-23T15:34:28;2.67;;;2.30;;
12165;SDS011;6146;48.128;11.476;2024-03-23T15:36:54;4.17;;;2.03;;
12165;SDS011;6146;48.128;11.476;2024-03-23T15:39:20;4.10;;;2.00;;
12165;SDS011;6146;48.128;11.476;2024-03-23T15:41:47;3.83;;;2.37;;
12165;SDS011;6146;48.128;11.476;2024-03-23T15:44:13;4.03;;;2.10;;
12165;SDS011;6146;48.128;11.476;2024-03-23T15:46:38;3.43;;;2.27;;
12165;SDS011;6146;48.128;11.476;2024-03-23T15:49:04;5.30;;;2.60;;